sensor_id;sensor_type;location;lat;lon;timestamp;P1;durP1;ratioP1;P2;durP2;ratioP2
38785;SDS011;24535;45.508;12.252;2023-04-24T00:02:08;16.23;;;14.00;;
38785;SDS011;24535;45.508;12.252;2023-04-24T00:04:36;16.95;;;13.40;;
38785;SDS011;24535;45.508;12.252;2023-04-24T00:07:05;16.88;;;13.73;;
38785;SDS011;24535;45.508;12.252;2023-04-24T00:09:35;18.42;;;13.95;;
38785;SDS011;24535;45.508;12.252;2023-04-24T00:12:00;16.58;;;14.02;;
38785;SDS011;24535;45.508;12.252;2023-04-24T00:14:28;16.98;;;13.40;;
38785;SDS011;24535;45.508;12.252;2023-04-24T00:16:54;15.55;;;13.63;;
38785;SDS011;24535;45.508;12.252;2023-04-24T00:19:19;16.80;;;13.52;;
38785;SDS011;24535;45.508;12.252;2023-04-24T00:21:46;18.02;;;13.40;;
38785;SDS011;24535;45.508;12.252;2023-04-24T00:24:15;16.40;;;13.13;;
38785;SDS011;24535;45.508;12.252;2023-04-24T00:26:41;16.67;;;13.45;;
38785;SDS011;24535;45.508;12.252;2023-04-24T00:29:06;18.52;;;15.52;;
38785;SDS011;24535;45.508;12.252;2023-04-24T00:31:32;16.52;;;12.63;;
38785;SDS011;24535;45.508;12.252;2023-04-24T00:34:00;16.25;;;13.48;;
38785;SDS011;24535;45.508;12.252;2023-04-24T00:36:28;18.73;;;15.05;;
38785;SDS011;24535;45.508;12.252;2023-04-24T00:38:55;17.58;;;13.93;;
38785;SDS011;24535;45.508;12.252;2023-04-24T00:41:21;16.40;;;14.52;;
38785;SDS011;24535;45.508;12.252;2023-04-24T00:43:47;16.48;;;13.75;;
38785;SDS011;24535;45.508;12.252;2023-04-24T00:46:13;16.35;;;14.10;;
38785;SDS011;24535;45.508;12.252;2023-04-24T00:48:39;16.15;;;14.55;;
38785;SDS011;24535;45.508;12.252;2023-04-24T00:51:05;22.42;;;14.80;;
38785;SDS011;24535;45.508;12.252;2023-04-24T00:53:30;18.35;;;14.93;;
38785;SDS011;24535;45.508;12.252;2023-04-24T00:55:56;17.52;;;15.32;;
38785;SDS011;24535;45.508;12.252;2023-04-24T00:58:22;17.27;;;15.27;;
38785;SDS011;24535;45.508;12.252;2023-04-24T01:00:49;17.42;;;15.13;;
38785;SDS011;24535;45.508;12.252;2023-04-24T01:03:18;19.90;;;15.55;;
38785;SDS011;24535;45.508;12.252;2023-04-24T01:05:47;19.55;;;16.48;;
38785;SDS011;24535;45.508;12.252;2023-04-24T01:08:14;19.50;;;15.65;;
38785;SDS011;24535;45.508;12.252;2023-04-24T01:10:40;17.63;;;14.88;;
38785;SDS011;24535;45.508;12.252;2023-04-24T01:13:07;18.42;;;14.85;;
38785;SDS011;24535;45.508;12.252;2023-04-24T01:15:33;17.40;;;15.40;;
38785;SDS011;24535;45.508;12.252;2023-04-24T01:17:59;15.68;;;14.02;;
38785;SDS011;24535;45.508;12.252;2023-04-24T01:20:25;19.08;;;16.27;;
38785;SDS011;24535;45.508;12.252;2023-04-24T01:22:51;21.67;;;16.13;;
38785;SDS011;24535;45.508;12.252;2023-04-24T01:25:19;19.27;;;16.87;;
38785;SDS011;24535;45.508;12.252;2023-04-24T01:27:45;17.95;;;15.38;;
38785;SDS011;24535;45.508;12.252;2023-04-24T01:30:11;20.60;;;18.05;;
38785;SDS011;24535;45.508;12.252;2023-04-24T01:32:37;20.05;;;15.82;;
38785;SDS011;24535;45.508;12.252;2023-04-24T01:35:04;21.88;;;17.40;;
38785;SDS011;24535;45.508;12.252;2023-04-24T01:37:30;19.17;;;16.13;;
38785;SDS011;24535;45.508;12.252;2023-04-24T01:39:57;18.23;;;16.25;;
38785;SDS011;24535;45.508;12.252;2023-04-24T01:42:25;21.20;;;17.75;;
38785;SDS011;24535;45.508;12.252;2023-04-24T01:44:51;18.88;;;16.83;;
38785;SDS011;24535;45.508;12.252;2023-04-24T01:47:16;23.23;;;17.08;;
38785;SDS011;24535;45.508;12.252;2023-04-24T01:49:42;22.92;;;17.63;;
38785;SDS011;24535;45.508;12.252;2023-04-24T01:52:07;18.40;;;16.40;;
38785;SDS011;24535;45.508;12.252;2023-04-24T01:54:33;22.55;;;17.88;;
38785;SDS011;24535;45.508;12.252;2023-04-24T01:56:58;18.98;;;15.88;;
38785;SDS011;24535;45.508;12.252;2023-04-24T01:59:26;22.42;;;18.17;;
38785;SDS011;24535;45.508;12.252;2023-04-24T02:01:53;23.08;;;18.33;;
38785;SDS011;24535;45.508;12.252;2023-04-24T02:04:18;19.90;;;17.80;;
38785;SDS011;24535;45.508;12.252;2023-04-24T02:06:44;20.83;;;18.40;;
38785;SDS011;24535;45.508;12.252;2023-04-24T02:09:10;23.67;;;18.55;;
38785;SDS011;24535;45.508;12.252;2023-04-24T02:11:36;20.33;;;18.13;;
38785;SDS011;24535;45.508;12.252;2023-04-24T02:14:01;22.02;;;17.95;;
38785;SDS011;24535;45.508;12.252;2023-04-24T02:16:27;25.48;;;19.02;;
38785;SDS011;24535;45.508;12.252;2023-04-24T02:18:57;25.58;;;19.30;;
38785;SDS011;24535;45.508;12.252;2023-04-24T02:21:23;22.10;;;19.00;;
38785;SDS011;24535;45.508;12.252;2023-04-24T02:23:48;21.73;;;18.90;;
38785;SDS011;24535;45.508;12.252;2023-04-24T02:26:14;22.27;;;19.17;;
38785;SDS011;24535;45.508;12.252;2023-04-24T02:28:40;23.20;;;20.38;;
38785;SDS011;24535;45.508;12.252;2023-04-24T02:31:05;22.52;;;20.13;;
38785;SDS011;24535;45.508;12.252;2023-04-24T02:33:31;23.60;;;19.75;;
38785;SDS011;24535;45.508;12.252;2023-04-24T02:35:57;23.35;;;19.80;;
38785;SDS011;24535;45.508;12.252;2023-04-24T02:38:22;24.25;;;19.92;;
38785;SDS011;24535;45.508;12.252;2023-04-24T02:40:48;22.83;;;19.65;;
38785;SDS011;24535;45.508;12.252;2023-04-24T02:43:13;22.30;;;18.75;;
38785;SDS011;24535;45.508;12.252;2023-04-24T02:45:39;22.83;;;19.90;;
38785;SDS011;24535;45.508;12.252;2023-04-24T02:48:04;24.30;;;20.58;;
38785;SDS011;24535;45.508;12.252;2023-04-24T02:50:30;23.70;;;19.02;;
38785;SDS011;24535;45.508;12.252;2023-04-24T02:52:56;21.95;;;19.58;;
38785;SDS011;24535;45.508;12.252;2023-04-24T02:55:22;21.50;;;17.58;;
38785;SDS011;24535;45.508;12.252;2023-04-24T02:57:47;24.98;;;19.02;;
38785;SDS011;24535;45.508;12.252;2023-04-24T03:00:13;21.65;;;18.13;;
38785;SDS011;24535;45.508;12.252;2023-04-24T03:02:38;23.23;;;17.60;;
38785;SDS011;24535;45.508;12.252;2023-04-24T03:05:04;23.05;;;17.88;;
38785;SDS011;24535;45.508;12.252;2023-04-24T03:07:29;20.88;;;18.27;;
38785;SDS011;24535;45.508;12.252;2023-04-24T03:09:56;19.05;;;17.05;;
38785;SDS011;24535;45.508;12.252;2023-04-24T03:12:23;21.67;;;17.85;;
38785;SDS011;24535;45.508;12.252;2023-04-24T03:14:49;20.40;;;18.02;;
38785;SDS011;24535;45.508;12.252;2023-04-24T03:17:14;23.45;;;19.25;;
38785;SDS011;24535;45.508;12.252;2023-04-24T03:19:39;26.75;;;19.10;;
38785;SDS011;24535;45.508;12.252;2023-04-24T03:22:05;21.88;;;18.10;;
38785;SDS011;24535;45.508;12.252;2023-04-24T03:24:31;19.40;;;17.40;;
38785;SDS011;24535;45.508;12.252;2023-04-24T03:26:56;20.90;;;17.10;;
38785;SDS011;24535;45.508;12.252;2023-04-24T03:29:22;19.20;;;15.98;;
38785;SDS011;24535;45.508;12.252;2023-04-24T03:31:47;20.27;;;17.38;;
38785;SDS011;24535;45.508;12.252;2023-04-24T03:34:13;20.02;;;15.98;;
38785;SDS011;24535;45.508;12.252;2023-04-24T03:36:38;17.85;;;15.73;;
38785;SDS011;24535;45.508;12.252;2023-04-24T03:39:04;19.38;;;14.05;;
38785;SDS011;24535;45.508;12.252;2023-04-24T03:41:29;19.15;;;15.45;;
38785;SDS011;24535;45.508;12.252;2023-04-24T03:43:55;19.23;;;14.85;;
38785;SDS011;24535;45.508;12.252;2023-04-24T03:46:21;17.02;;;15.13;;
38785;SDS011;24535;45.508;12.252;2023-04-24T03:48:46;16.45;;;14.75;;
38785;SDS011;24535;45.508;12.252;2023-04-24T03:51:12;18.52;;;15.65;;
38785;SDS011;24535;45.508;12.252;2023-04-24T03:53:37;20.70;;;14.68;;
38785;SDS011;24535;45.508;12.252;2023-04-24T03:56:03;17.45;;;15.50;;
38785;SDS011;24535;45.508;12.252;2023-04-24T03:58:28;18.67;;;14.43;;
38785;SDS011;24535;45.508;12.252;2023-04-24T04:00:54;19.23;;;15.75;;
38785;SDS011;24535;45.508;12.252;2023-04-24T04:03:21;17.15;;;14.85;;
38785;SDS011;24535;45.508;12.252;2023-04-24T04:05:47;21.85;;;14.95;;
38785;SDS011;24535;45.508;12.252;2023-04-24T04:08:13;15.63;;;13.15;;
38785;SDS011;24535;45.508;12.252;2023-04-24T04:10:38;14.68;;;13.13;;
38785;SDS011;24535;45.508;12.252;2023-04-24T04:13:03;18.83;;;16.70;;
38785;SDS011;24535;45.508;12.252;2023-04-24T04:15:29;20.50;;;16.48;;
38785;SDS011;24535;45.508;12.252;2023-04-24T04:17:54;18.25;;;13.35;;
38785;SDS011;24535;45.508;12.252;2023-04-24T04:20:20;15.13;;;12.90;;
38785;SDS011;24535;45.508;12.252;2023-04-24T04:22:45;16.35;;;14.43;;
38785;SDS011;24535;45.508;12.252;2023-04-24T04:25:11;15.95;;;13.48;;
38785;SDS011;24535;45.508;12.252;2023-04-24T04:27:38;14.73;;;12.25;;
38785;SDS011;24535;45.508;12.252;2023-04-24T04:30:04;18.73;;;14.57;;
38785;SDS011;24535;45.508;12.252;2023-04-24T04:32:33;16.77;;;12.70;;
38785;SDS011;24535;45.508;12.252;2023-04-24T04:37:28;16.88;;;13.70;;
38785;SDS011;24535;45.508;12.252;2023-04-24T04:39:54;16.23;;;13.25;;
38785;SDS011;24535;45.508;12.252;2023-04-24T04:42:20;17.98;;;13.82;;
38785;SDS011;24535;45.508;12.252;2023-04-24T04:44:45;15.50;;;13.77;;
38785;SDS011;24535;45.508;12.252;2023-04-24T04:47:11;18.88;;;15.98;;
38785;SDS011;24535;45.508;12.252;2023-04-24T04:49:37;22.83;;;16.38;;
38785;SDS011;24535;45.508;12.252;2023-04-24T04:52:03;23.50;;;15.13;;
38785;SDS011;24535;45.508;12.252;2023-04-24T04:54:29;20.50;;;14.88;;
38785;SDS011;24535;45.508;12.252;2023-04-24T04:56:55;22.27;;;16.77;;
38785;SDS011;24535;45.508;12.252;2023-04-24T04:59:22;20.10;;;16.17;;
38785;SDS011;24535;45.508;12.252;2023-04-24T05:01:48;20.80;;;16.95;;
38785;SDS011;24535;45.508;12.252;2023-04-24T05:04:13;21.15;;;16.65;;
38785;SDS011;24535;45.508;12.252;2023-04-24T05:06:38;23.58;;;17.25;;
38785;SDS011;24535;45.508;12.252;2023-04-24T05:09:04;24.30;;;16.98;;
38785;SDS011;24535;45.508;12.252;2023-04-24T05:11:30;22.08;;;17.25;;
38785;SDS011;24535;45.508;12.252;2023-04-24T05:13:55;20.73;;;16.48;;
38785;SDS011;24535;45.508;12.252;2023-04-24T05:16:20;16.33;;;13.65;;
38785;SDS011;24535;45.508;12.252;2023-04-24T05:18:46;18.75;;;12.13;;
38785;SDS011;24535;45.508;12.252;2023-04-24T05:21:11;23.70;;;16.48;;
38785;SDS011;24535;45.508;12.252;2023-04-24T05:23:37;23.95;;;16.45;;
38785;SDS011;24535;45.508;12.252;2023-04-24T05:26:03;25.65;;;18.10;;
38785;SDS011;24535;45.508;12.252;2023-04-24T05:28:28;25.45;;;18.35;;
38785;SDS011;24535;45.508;12.252;2023-04-24T05:30:54;22.85;;;17.45;;
38785;SDS011;24535;45.508;12.252;2023-04-24T05:33:24;21.73;;;17.38;;
38785;SDS011;24535;45.508;12.252;2023-04-24T05:35:49;21.08;;;17.90;;
38785;SDS011;24535;45.508;12.252;2023-04-24T05:38:15;21.05;;;17.13;;
38785;SDS011;24535;45.508;12.252;2023-04-24T05:40:42;25.42;;;17.90;;
38785;SDS011;24535;45.508;12.252;2023-04-24T05:43:08;21.30;;;17.83;;
38785;SDS011;24535;45.508;12.252;2023-04-24T05:45:33;23.77;;;17.33;;
38785;SDS011;24535;45.508;12.252;2023-04-24T05:48:01;26.50;;;18.38;;
38785;SDS011;24535;45.508;12.252;2023-04-24T05:50:27;22.95;;;17.88;;
38785;SDS011;24535;45.508;12.252;2023-04-24T05:52:52;24.60;;;17.05;;
38785;SDS011;24535;45.508;12.252;2023-04-24T05:55:18;21.65;;;16.75;;
38785;SDS011;24535;45.508;12.252;2023-04-24T05:57:44;20.92;;;18.50;;
38785;SDS011;24535;45.508;12.252;2023-04-24T06:00:09;25.67;;;18.63;;
38785;SDS011;24535;45.508;12.252;2023-04-24T06:02:37;22.77;;;16.40;;
38785;SDS011;24535;45.508;12.252;2023-04-24T06:05:03;24.17;;;18.75;;
38785;SDS011;24535;45.508;12.252;2023-04-24T06:07:29;23.05;;;19.48;;
38785;SDS011;24535;45.508;12.252;2023-04-24T06:09:55;27.27;;;20.05;;
38785;SDS011;24535;45.508;12.252;2023-04-24T06:12:21;28.30;;;20.65;;
38785;SDS011;24535;45.508;12.252;2023-04-24T06:14:47;26.02;;;20.00;;
38785;SDS011;24535;45.508;12.252;2023-04-24T06:17:12;25.67;;;20.90;;
38785;SDS011;24535;45.508;12.252;2023-04-24T06:19:38;26.20;;;20.92;;
38785;SDS011;24535;45.508;12.252;2023-04-24T06:22:04;26.50;;;19.95;;
38785;SDS011;24535;45.508;12.252;2023-04-24T06:24:29;27.73;;;21.10;;
38785;SDS011;24535;45.508;12.252;2023-04-24T06:26:55;25.83;;;18.13;;
38785;SDS011;24535;45.508;12.252;2023-04-24T06:29:22;28.35;;;19.58;;
38785;SDS011;24535;45.508;12.252;2023-04-24T06:31:47;28.52;;;19.50;;
38785;SDS011;24535;45.508;12.252;2023-04-24T06:34:13;25.98;;;16.38;;
38785;SDS011;24535;45.508;12.252;2023-04-24T06:36:38;23.67;;;17.60;;
38785;SDS011;24535;45.508;12.252;2023-04-24T06:39:04;24.48;;;18.58;;
38785;SDS011;24535;45.508;12.252;2023-04-24T06:41:29;24.02;;;18.20;;
38785;SDS011;24535;45.508;12.252;2023-04-24T06:43:55;30.27;;;18.13;;
38785;SDS011;24535;45.508;12.252;2023-04-24T06:46:21;25.25;;;18.02;;
38785;SDS011;24535;45.508;12.252;2023-04-24T06:48:51;22.77;;;17.48;;
38785;SDS011;24535;45.508;12.252;2023-04-24T06:53:45;14.50;;;12.20;;
38785;SDS011;24535;45.508;12.252;2023-04-24T06:56:11;20.98;;;15.07;;
38785;SDS011;24535;45.508;12.252;2023-04-24T06:58:36;22.83;;;15.93;;
38785;SDS011;24535;45.508;12.252;2023-04-24T07:01:02;19.48;;;16.10;;
38785;SDS011;24535;45.508;12.252;2023-04-24T07:03:27;17.20;;;15.10;;
38785;SDS011;24535;45.508;12.252;2023-04-24T07:05:53;21.05;;;15.75;;
38785;SDS011;24535;45.508;12.252;2023-04-24T07:08:19;18.52;;;16.52;;
38785;SDS011;24535;45.508;12.252;2023-04-24T07:10:47;22.92;;;15.80;;
38785;SDS011;24535;45.508;12.252;2023-04-24T07:13:12;16.10;;;13.63;;
38785;SDS011;24535;45.508;12.252;2023-04-24T07:15:37;16.80;;;13.25;;
38785;SDS011;24535;45.508;12.252;2023-04-24T07:18:03;12.27;;;10.27;;
38785;SDS011;24535;45.508;12.252;2023-04-24T07:20:29;15.35;;;11.23;;
38785;SDS011;24535;45.508;12.252;2023-04-24T07:22:55;14.50;;;10.60;;
38785;SDS011;24535;45.508;12.252;2023-04-24T07:28:09;14.82;;;8.13;;
38785;SDS011;24535;45.508;12.252;2023-04-24T07:30:34;14.40;;;8.23;;
38785;SDS011;24535;45.508;12.252;2023-04-24T07:33:00;12.93;;;8.15;;
38785;SDS011;24535;45.508;12.252;2023-04-24T07:35:26;12.20;;;8.60;;
38785;SDS011;24535;45.508;12.252;2023-04-24T07:37:55;16.20;;;8.25;;
38785;SDS011;24535;45.508;12.252;2023-04-24T07:40:21;13.65;;;8.88;;
38785;SDS011;24535;45.508;12.252;2023-04-24T07:42:47;12.95;;;7.85;;
38785;SDS011;24535;45.508;12.252;2023-04-24T07:45:15;15.32;;;9.15;;
38785;SDS011;24535;45.508;12.252;2023-04-24T07:47:44;10.77;;;7.68;;
38785;SDS011;24535;45.508;12.252;2023-04-24T07:50:10;13.73;;;8.80;;
38785;SDS011;24535;45.508;12.252;2023-04-24T07:52:37;11.70;;;9.07;;
38785;SDS011;24535;45.508;12.252;2023-04-24T07:55:02;11.05;;;8.82;;
38785;SDS011;24535;45.508;12.252;2023-04-24T07:57:28;11.25;;;8.25;;
38785;SDS011;24535;45.508;12.252;2023-04-24T07:59:54;11.48;;;7.13;;
38785;SDS011;24535;45.508;12.252;2023-04-24T08:02:20;9.88;;;7.68;;
38785;SDS011;24535;45.508;12.252;2023-04-24T08:04:46;10.68;;;7.90;;
38785;SDS011;24535;45.508;12.252;2023-04-24T08:07:12;9.57;;;7.78;;
38785;SDS011;24535;45.508;12.252;2023-04-24T08:09:38;13.43;;;8.20;;
38785;SDS011;24535;45.508;12.252;2023-04-24T08:12:03;12.55;;;7.25;;
38785;SDS011;24535;45.508;12.252;2023-04-24T08:14:28;8.95;;;7.45;;
38785;SDS011;24535;45.508;12.252;2023-04-24T08:16:54;12.85;;;8.30;;
38785;SDS011;24535;45.508;12.252;2023-04-24T08:19:21;12.05;;;8.10;;
38785;SDS011;24535;45.508;12.252;2023-04-24T08:21:46;11.70;;;9.13;;
38785;SDS011;24535;45.508;12.252;2023-04-24T08:24:12;11.02;;;8.60;;
38785;SDS011;24535;45.508;12.252;2023-04-24T08:26:37;8.40;;;6.47;;
38785;SDS011;24535;45.508;12.252;2023-04-24T08:29:02;9.82;;;5.93;;
38785;SDS011;24535;45.508;12.252;2023-04-24T08:31:28;11.45;;;8.02;;
38785;SDS011;24535;45.508;12.252;2023-04-24T08:33:53;9.68;;;8.05;;
38785;SDS011;24535;45.508;12.252;2023-04-24T08:36:19;9.82;;;8.45;;
38785;SDS011;24535;45.508;12.252;2023-04-24T08:38:44;9.93;;;8.93;;
38785;SDS011;24535;45.508;12.252;2023-04-24T08:41:11;12.00;;;7.57;;
38785;SDS011;24535;45.508;12.252;2023-04-24T08:43:40;12.30;;;9.25;;
38785;SDS011;24535;45.508;12.252;2023-04-24T08:46:06;10.93;;;9.73;;
38785;SDS011;24535;45.508;12.252;2023-04-24T08:48:32;14.55;;;10.57;;
38785;SDS011;24535;45.508;12.252;2023-04-24T08:50:58;12.13;;;10.20;;
38785;SDS011;24535;45.508;12.252;2023-04-24T08:53:24;11.68;;;9.00;;
38785;SDS011;24535;45.508;12.252;2023-04-24T08:55:50;10.40;;;8.25;;
38785;SDS011;24535;45.508;12.252;2023-04-24T08:58:17;9.48;;;8.50;;
38785;SDS011;24535;45.508;12.252;2023-04-24T09:00:45;10.07;;;8.43;;
38785;SDS011;24535;45.508;12.252;2023-04-24T09:03:15;10.90;;;9.25;;
38785;SDS011;24535;45.508;12.252;2023-04-24T09:05:42;10.68;;;8.68;;
38785;SDS011;24535;45.508;12.252;2023-04-24T09:08:10;10.40;;;9.40;;
38785;SDS011;24535;45.508;12.252;2023-04-24T09:10:38;11.10;;;9.02;;
38785;SDS011;24535;45.508;12.252;2023-04-24T09:13:04;13.32;;;11.23;;
38785;SDS011;24535;45.508;12.252;2023-04-24T09:15:30;11.02;;;9.93;;
38785;SDS011;24535;45.508;12.252;2023-04-24T09:17:56;10.63;;;9.52;;
38785;SDS011;24535;45.508;12.252;2023-04-24T09:20:22;12.35;;;10.27;;
38785;SDS011;24535;45.508;12.252;2023-04-24T09:22:47;11.23;;;9.90;;
38785;SDS011;24535;45.508;12.252;2023-04-24T09:25:13;10.38;;;9.30;;
38785;SDS011;24535;45.508;12.252;2023-04-24T09:27:42;11.40;;;9.90;;
38785;SDS011;24535;45.508;12.252;2023-04-24T09:30:09;9.60;;;8.68;;
38785;SDS011;24535;45.508;12.252;2023-04-24T09:32:35;9.98;;;8.98;;
38785;SDS011;24535;45.508;12.252;2023-04-24T09:35:08;8.98;;;8.07;;
38785;SDS011;24535;45.508;12.252;2023-04-24T09:37:37;8.65;;;7.10;;
38785;SDS011;24535;45.508;12.252;2023-04-24T09:40:13;7.95;;;7.15;;
38785;SDS011;24535;45.508;12.252;2023-04-24T09:42:44;8.60;;;7.43;;
38785;SDS011;24535;45.508;12.252;2023-04-24T09:45:19;7.80;;;6.43;;
38785;SDS011;24535;45.508;12.252;2023-04-24T09:47:45;7.38;;;6.20;;
38785;SDS011;24535;45.508;12.252;2023-04-24T09:50:16;9.70;;;6.22;;
38785;SDS011;24535;45.508;12.252;2023-04-24T09:55:27;9.57;;;6.25;;
38785;SDS011;24535;45.508;12.252;2023-04-24T09:57:56;7.45;;;5.72;;
38785;SDS011;24535;45.508;12.252;2023-04-24T10:00:27;10.57;;;6.35;;
38785;SDS011;24535;45.508;12.252;2023-04-24T10:02:57;6.15;;;5.30;;
38785;SDS011;24535;45.508;12.252;2023-04-24T10:05:27;6.93;;;5.18;;
38785;SDS011;24535;45.508;12.252;2023-04-24T10:07:57;7.13;;;5.18;;
38785;SDS011;24535;45.508;12.252;2023-04-24T10:10:31;13.23;;;5.18;;
38785;SDS011;24535;45.508;12.252;2023-04-24T10:12:58;5.97;;;4.25;;
38785;SDS011;24535;45.508;12.252;2023-04-24T10:15:24;7.32;;;4.38;;
38785;SDS011;24535;45.508;12.252;2023-04-24T10:17:51;6.53;;;3.80;;
38785;SDS011;24535;45.508;12.252;2023-04-24T10:20:23;6.88;;;4.13;;
38785;SDS011;24535;45.508;12.252;2023-04-24T10:22:52;5.95;;;4.20;;
38785;SDS011;24535;45.508;12.252;2023-04-24T10:25:23;6.80;;;4.28;;
38785;SDS011;24535;45.508;12.252;2023-04-24T10:27:51;5.80;;;3.60;;
38785;SDS011;24535;45.508;12.252;2023-04-24T10:30:18;4.80;;;3.38;;
38785;SDS011;24535;45.508;12.252;2023-04-24T10:32:44;6.40;;;4.15;;
38785;SDS011;24535;45.508;12.252;2023-04-24T10:35:12;6.60;;;4.05;;
38785;SDS011;24535;45.508;12.252;2023-04-24T10:37:45;5.97;;;3.88;;
38785;SDS011;24535;45.508;12.252;2023-04-24T10:40:24;5.25;;;4.28;;
38785;SDS011;24535;45.508;12.252;2023-04-24T10:42:52;5.95;;;4.32;;
38785;SDS011;24535;45.508;12.252;2023-04-24T10:45:20;9.75;;;4.75;;
38785;SDS011;24535;45.508;12.252;2023-04-24T10:47:51;7.50;;;4.22;;
38785;SDS011;24535;45.508;12.252;2023-04-24T10:50:27;4.97;;;4.15;;
38785;SDS011;24535;45.508;12.252;2023-04-24T10:53:04;5.78;;;3.95;;
38785;SDS011;24535;45.508;12.252;2023-04-24T10:55:41;5.45;;;3.40;;
38785;SDS011;24535;45.508;12.252;2023-04-24T10:58:09;4.75;;;3.22;;
38785;SDS011;24535;45.508;12.252;2023-04-24T11:00:39;5.95;;;3.20;;
38785;SDS011;24535;45.508;12.252;2023-04-24T11:03:22;5.38;;;2.35;;
38785;SDS011;24535;45.508;12.252;2023-04-24T11:06:08;2.65;;;1.83;;
38785;SDS011;24535;45.508;12.252;2023-04-24T11:08:39;4.00;;;2.22;;
38785;SDS011;24535;45.508;12.252;2023-04-24T11:11:09;2.72;;;1.95;;
38785;SDS011;24535;45.508;12.252;2023-04-24T11:16:21;2.92;;;1.83;;
38785;SDS011;24535;45.508;12.252;2023-04-24T11:24:29;2.97;;;1.73;;
38785;SDS011;24535;45.508;12.252;2023-04-24T11:29:49;1.08;;;0.90;;
38785;SDS011;24535;45.508;12.252;2023-04-24T11:34:51;0.80;;;0.32;;
38785;SDS011;24535;45.508;12.252;2023-04-24T11:37:18;0.70;;;0.50;;
38785;SDS011;24535;45.508;12.252;2023-04-24T11:39:44;1.73;;;0.30;;
38785;SDS011;24535;45.508;12.252;2023-04-24T11:42:09;1.25;;;0.50;;
38785;SDS011;24535;45.508;12.252;2023-04-24T11:44:35;0.30;;;0.30;;
38785;SDS011;24535;45.508;12.252;2023-04-24T11:47:04;0.28;;;0.25;;
38785;SDS011;24535;45.508;12.252;2023-04-24T11:49:30;0.50;;;0.40;;
38785;SDS011;24535;45.508;12.252;2023-04-24T11:51:56;0.60;;;0.30;;
38785;SDS011;24535;45.508;12.252;2023-04-24T11:54:21;0.43;;;0.40;;
38785;SDS011;24535;45.508;12.252;2023-04-24T11:56:47;2.75;;;0.43;;
38785;SDS011;24535;45.508;12.252;2023-04-24T11:59:14;0.60;;;0.38;;
38785;SDS011;24535;45.508;12.252;2023-04-24T12:01:43;1.17;;;0.50;;
38785;SDS011;24535;45.508;12.252;2023-04-24T12:04:13;1.23;;;0.40;;
38785;SDS011;24535;45.508;12.252;2023-04-24T12:07:02;0.87;;;0.30;;
38785;SDS011;24535;45.508;12.252;2023-04-24T12:09:27;0.80;;;0.30;;
38785;SDS011;24535;45.508;12.252;2023-04-24T12:11:53;0.43;;;0.40;;
38785;SDS011;24535;45.508;12.252;2023-04-24T12:14:23;0.70;;;0.30;;
38785;SDS011;24535;45.508;12.252;2023-04-24T12:16:51;0.73;;;0.28;;
38785;SDS011;24535;45.508;12.252;2023-04-24T12:19:23;0.68;;;0.30;;
38785;SDS011;24535;45.508;12.252;2023-04-24T12:22:01;0.20;;;0.20;;
38785;SDS011;24535;45.508;12.252;2023-04-24T12:24:28;0.95;;;0.30;;
38785;SDS011;24535;45.508;12.252;2023-04-24T12:26:55;0.50;;;0.40;;
38785;SDS011;24535;45.508;12.252;2023-04-24T12:29:22;0.68;;;0.35;;
38785;SDS011;24535;45.508;12.252;2023-04-24T12:31:48;3.20;;;1.77;;
38785;SDS011;24535;45.508;12.252;2023-04-24T12:34:21;1.20;;;0.68;;
38785;SDS011;24535;45.508;12.252;2023-04-24T12:36:48;1.80;;;0.60;;
38785;SDS011;24535;45.508;12.252;2023-04-24T12:39:14;1.15;;;0.50;;
38785;SDS011;24535;45.508;12.252;2023-04-24T12:41:55;1.15;;;0.70;;
38785;SDS011;24535;45.508;12.252;2023-04-24T12:44:32;4.63;;;0.50;;
38785;SDS011;24535;45.508;12.252;2023-04-24T12:47:00;0.30;;;0.20;;
38785;SDS011;24535;45.508;12.252;2023-04-24T12:49:26;0.98;;;0.30;;
38785;SDS011;24535;45.508;12.252;2023-04-24T12:51:52;0.98;;;0.30;;
38785;SDS011;24535;45.508;12.252;2023-04-24T12:54:18;0.30;;;0.30;;
38785;SDS011;24535;45.508;12.252;2023-04-24T12:56:44;0.60;;;0.30;;
38785;SDS011;24535;45.508;12.252;2023-04-24T12:59:09;0.70;;;0.47;;
38785;SDS011;24535;45.508;12.252;2023-04-24T13:01:35;1.42;;;0.43;;
38785;SDS011;24535;45.508;12.252;2023-04-24T13:04:00;0.57;;;0.20;;
38785;SDS011;24535;45.508;12.252;2023-04-24T13:06:26;0.60;;;0.30;;
38785;SDS011;24535;45.508;12.252;2023-04-24T13:08:51;0.88;;;0.52;;
38785;SDS011;24535;45.508;12.252;2023-04-24T13:11:17;0.73;;;0.38;;
38785;SDS011;24535;45.508;12.252;2023-04-24T13:13:42;0.80;;;0.32;;
38785;SDS011;24535;45.508;12.252;2023-04-24T13:16:08;1.02;;;0.38;;
38785;SDS011;24535;45.508;12.252;2023-04-24T13:18:33;0.40;;;0.20;;
38785;SDS011;24535;45.508;12.252;2023-04-24T13:20:59;0.50;;;0.25;;
38785;SDS011;24535;45.508;12.252;2023-04-24T13:23:24;0.32;;;0.20;;
38785;SDS011;24535;45.508;12.252;2023-04-24T13:25:50;0.45;;;0.38;;
38785;SDS011;24535;45.508;12.252;2023-04-24T13:28:15;1.08;;;0.57;;
38785;SDS011;24535;45.508;12.252;2023-04-24T13:30:40;2.05;;;0.52;;
38785;SDS011;24535;45.508;12.252;2023-04-24T13:33:06;1.58;;;1.13;;
38785;SDS011;24535;45.508;12.252;2023-04-24T13:35:31;1.70;;;0.75;;
38785;SDS011;24535;45.508;12.252;2023-04-24T13:37:57;8.43;;;1.20;;
38785;SDS011;24535;45.508;12.252;2023-04-24T13:40:22;1.65;;;0.88;;
38785;SDS011;24535;45.508;12.252;2023-04-24T13:42:48;1.40;;;0.70;;
38785;SDS011;24535;45.508;12.252;2023-04-24T13:45:14;4.25;;;0.80;;
38785;SDS011;24535;45.508;12.252;2023-04-24T13:47:40;1.42;;;0.90;;
38785;SDS011;24535;45.508;12.252;2023-04-24T13:50:08;1.08;;;0.80;;
38785;SDS011;24535;45.508;12.252;2023-04-24T13:52:34;1.40;;;0.60;;
38785;SDS011;24535;45.508;12.252;2023-04-24T13:55:00;2.13;;;0.47;;
38785;SDS011;24535;45.508;12.252;2023-04-24T13:57:25;0.50;;;0.30;;
38785;SDS011;24535;45.508;12.252;2023-04-24T13:59:52;0.80;;;0.50;;
38785;SDS011;24535;45.508;12.252;2023-04-24T14:02:17;1.05;;;0.52;;
38785;SDS011;24535;45.508;12.252;2023-04-24T14:04:43;0.68;;;0.50;;
38785;SDS011;24535;45.508;12.252;2023-04-24T14:07:08;0.73;;;0.50;;
38785;SDS011;24535;45.508;12.252;2023-04-24T14:09:34;0.45;;;0.40;;
38785;SDS011;24535;45.508;12.252;2023-04-24T14:11:59;0.93;;;0.52;;
38785;SDS011;24535;45.508;12.252;2023-04-24T14:14:26;1.58;;;0.60;;
38785;SDS011;24535;45.508;12.252;2023-04-24T14:16:52;1.00;;;0.43;;
38785;SDS011;24535;45.508;12.252;2023-04-24T14:19:17;0.45;;;0.20;;
38785;SDS011;24535;45.508;12.252;2023-04-24T14:21:42;0.77;;;0.43;;
38785;SDS011;24535;45.508;12.252;2023-04-24T14:24:09;1.38;;;0.30;;
38785;SDS011;24535;45.508;12.252;2023-04-24T14:26:34;1.13;;;0.40;;
38785;SDS011;24535;45.508;12.252;2023-04-24T14:29:00;1.40;;;0.40;;
38785;SDS011;24535;45.508;12.252;2023-04-24T14:31:25;0.98;;;0.50;;
38785;SDS011;24535;45.508;12.252;2023-04-24T14:33:52;2.10;;;0.70;;
38785;SDS011;24535;45.508;12.252;2023-04-24T14:36:17;0.80;;;0.30;;
38785;SDS011;24535;45.508;12.252;2023-04-24T14:38:43;0.28;;;0.20;;
38785;SDS011;24535;45.508;12.252;2023-04-24T14:41:08;1.35;;;0.38;;